• Join FlightAware (Why Join?)
  • Login
  • US Flag 
 
09:27PM EST


 

Airport Tracker/Info


-or-


 

Live Flight TrackerFlight Track Log ✈ BAW2649 ✈ 09-May-2013 ✈ LATI / TIA - EGKK / LGW

Flight Track Log - Related Links

Times and Time Zones

All times are in EDT time to prevent confusion due to time zone crossing. See the BAW2649 flight status page for this flight to view local times or setup timezone preferences in your user account.

Time Position Orientation Groundspeed Altitude Reporting Facility
EDT Latitude Longitude Course Direction KTS MPH feet Rate Location/Type
01:30PM 41.4869 19.6143 312° West  Level Estimated
01:31PM 41.5590 19.5078 312° West  Level Estimated
01:32PM 41.6310 19.4010 312° West  Level Estimated
01:33PM 41.7029 19.2940 312° West  Level Estimated
01:34PM 41.7747 19.1868 312° West  Level Estimated
01:35PM 41.8464 19.0793 312° West  Level Estimated
01:36PM 41.9180 18.9716 312° West  Level Estimated
01:37PM 41.9895 18.8637 312° West  Level Estimated
01:38PM 42.0609 18.7555 312° West  Level Estimated
01:39PM 42.1322 18.6471 312° West  Level Estimated
01:40PM 42.2034 18.5384 312° West  Level Estimated
01:41PM 42.2745 18.4294 311° West  Level Estimated
01:42PM 42.3455 18.3203 311° West  Level Estimated
01:43PM 42.4164 18.2108 311° West  Level Estimated
01:44PM 42.4872 18.1012 311° West  Level Estimated
01:45PM 42.5579 17.9913 311° West  Level Estimated
01:46PM 42.6284 17.8811 311° West  Level Estimated
01:47PM 42.6989 17.7707 311° West  Level Estimated
01:48PM 42.7693 17.6600 311° West  Level Estimated
01:49PM 42.8395 17.5491 311° West  Level Estimated
01:50PM 42.9096 17.4379 311° West  Level Estimated
01:51PM 42.9797 17.3265 311° West  Level Estimated
01:52PM 43.0496 17.2148 311° West  Level Estimated
01:53PM 43.1194 17.1029 311° West  Level Estimated
01:54PM 43.1892 16.9907 310° West  Level Estimated
01:55PM 43.2588 16.8783 310° West  Level Estimated
01:56PM 43.3282 16.7656 310° West  Level Estimated
01:57PM 43.3976 16.6526 310° West  Level Estimated
01:58PM 43.4669 16.5394 310° West  Level Estimated
01:59PM 43.5512 16.4011 310° West  Level Estimated
02:00PM 43.6353 16.2624 310° West  Level Estimated
02:01PM 43.7192 16.1232 310° West  Level Estimated
02:02PM 43.8030 15.9837 310° West  Level Estimated
02:03PM 43.8865 15.8439 310° West  Level Estimated
02:04PM 43.9700 15.7036 310° West  Level Estimated
02:05PM 44.0532 15.5629 309° West  Level Estimated
02:06PM 44.1363 15.4218 309° West  Level Estimated
02:07PM 44.2192 15.2803 309° West  Level Estimated
02:08PM 44.3019 15.1385 309° West  Level Estimated
02:09PM 44.3845 14.9962 309° West  Level Estimated
02:10PM 44.4669 14.8535 309° West  Level Estimated
02:11PM 44.5490 14.7105 309° West  Level Estimated
02:12PM 44.6311 14.5670 309° West  Level Estimated
02:13PM 44.7129 14.4231 309° West  Level Estimated
02:14PM 44.7946 14.2788 309° West  Level Estimated
02:15PM 44.8760 14.1341 309° West  Level Estimated
02:16PM 44.9573 13.9890 308° West  Level Estimated
02:17PM 45.0384 13.8435 308° West  Level Estimated
02:18PM 45.1194 13.6976 308° West  Level Estimated
02:19PM 45.2001 13.5512 308° West  Level Estimated
02:20PM 45.2807 13.4045 308° West  Level Estimated
02:21PM 45.3610 13.2573 308° West  Level Estimated
02:22PM 45.4412 13.1097 308° West  Level Estimated
02:23PM 45.5212 12.9616 308° West  Level Estimated
02:24PM 45.6009 12.8132 308° West  Level Estimated
02:25PM 45.6805 12.6643 307° West  Level Estimated
02:26PM 45.7599 12.5151 307° West  Level Estimated
02:27PM 45.8391 12.3654 307° West  Level Estimated
02:28PM 45.9182 12.2152 307° West  Level Estimated
02:29PM 45.9970 12.0647 307° West  Level Estimated
02:30PM 46.0756 11.9137 307° West  Level Estimated
02:31PM 46.1540 11.7623 307° West  Level Estimated
02:32PM 46.2322 11.6104 307° West  Level Estimated
02:33PM 46.3102 11.4581 307° West  Level Estimated
02:34PM 46.3880 11.3054 306° West  Level Estimated
02:35PM 46.4656 11.1523 306° West  Level Estimated
02:36PM 46.5430 10.9987 306° West  Level Estimated
02:37PM 46.6202 10.8446 306° West  Level Estimated
02:38PM 46.6972 10.6902 306° West  Level Estimated
02:39PM 46.7740 10.5353 306° West  Level Estimated
02:40PM 46.8506 10.3799 306° West  Level Estimated
02:41PM 46.9269 10.2241 306° West  Level Estimated
02:42PM 47.0031 10.0679 306° West  Level Estimated
02:43PM 47.0790 9.9112 305° West  Level Estimated
02:44PM 47.1547 9.7541 305° West  Level Estimated
02:45PM 47.2302 9.5965 305° West  Level Estimated
02:46PM 47.3055 9.4385 305° West  Level Estimated
02:47PM 47.3806 9.2800 305° West  Level Estimated
02:48PM 47.4554 9.1210 305° West  Level Estimated
02:49PM 47.5301 8.9617 305° West  Level Estimated
02:50PM 47.6045 8.8018 305° West  Level Estimated
02:51PM 47.6787 8.6416 305° West  Level Estimated
02:52PM 47.7526 8.4808 304° West  Level Estimated
02:53PM 47.8264 8.3196 304° West  Level Estimated
02:54PM 47.8999 8.1580 304° West  Level Estimated
02:55PM 47.9732 7.9958 304° West  Level Estimated
02:56PM 48.0462 7.8333 304° West  Level Estimated
02:57PM 48.1190 7.6702 304° West  Level Estimated
02:58PM 48.1916 7.5067 304° West  Level Estimated
02:59PM 48.2640 7.3428 304° West  Level Estimated
03:00PM 48.3361 7.1783 303° West  Level Estimated
03:01PM 48.4080 7.0134 303° West  Level Estimated
03:02PM 48.4797 6.8481 303° West  Level Estimated
03:03PM 48.5511 6.6822 303° West  Level Estimated
03:04PM 48.6223 6.5160 303° West  Level Estimated
03:05PM 48.6932 6.3492 303° West  Level Estimated
03:06PM 48.7639 6.1820 303° West  Level Estimated
03:07PM 48.8344 6.0143 303° West  Level Estimated
03:08PM 48.9046 5.8461 302° West  Level Estimated
03:09PM 48.9745 5.6774 302° West  Level Estimated
03:10PM 49.0443 5.5083 302° West  Level Estimated
03:11PM 49.1137 5.3387 302° West  Level Estimated
03:12PM 49.1830 5.1686 302° West  Level Estimated
03:13PM 49.2519 4.9981 302° West  Level Estimated
03:14PM 49.3206 4.8271 302° West  Level Estimated
03:15PM 49.3891 4.6556 302° West  Level Estimated
03:16PM 49.4573 4.4836 301° West  Level Estimated
03:17PM 49.5253 4.3111 301° West  Level Estimated
03:18PM 49.5930 4.1382 301° West  Level Estimated
03:19PM 49.6604 3.9648 301° West  Level Estimated
03:20PM 49.7276 3.7909 301° West  Level Estimated
03:21PM 49.7945 3.6165 301° West  Level Estimated
03:22PM 49.8612 3.4416 301° West  Level Estimated
03:23PM 49.9276 3.2663 301° West  Level Estimated
03:24PM 49.9937 3.0905 300° West  Level Estimated
03:25PM 50.0596 2.9142 300° West  Level Estimated
03:26PM 50.1252 2.7374 300° West  Level Estimated
03:27PM 50.1905 2.5601 300° West  Level Estimated
03:28PM 50.2556 2.3824 300° West  Level Estimated
03:29PM 50.3204 2.2041 300° West  Level Estimated
03:30PM 50.3849 2.0254 300° West  Level Estimated
03:31PM 50.4491 1.8462 299° West  Level Estimated
03:31PM 49.4009 2.8365 299° West 1 1 30,400  Level FlightAware UK
03:32PM 50.5131 1.6665 299° West  Level Estimated
03:32PM 49.4463 2.7514 309° West 1 1 30,500  Level FlightAware UK
03:32PM 49.4772 2.6924 309° West 1 1 30,500  Level FlightAware UK
03:33PM 49.5042 2.6512 315° West 1 1 30,500  Level FlightAware UK
03:33PM 49.5351 2.5943 310° West 444 511 30,500  Level FlightAware UK
03:33PM 49.5748 2.5274 312° West 442 509 30,500  Level FlightAware UK
03:34PM 49.5984 2.4879 313° West 442 509 30,500  Level FlightAware UK
03:34PM 49.6226 2.4476 313° West 442 509 30,500  Level FlightAware UK
03:34PM 49.6541 2.3940 312° West 436 502 30,500  Level FlightAware UK
03:35PM 49.6853 2.3410 312° West 438 504 30,500  Level FlightAware UK
03:35PM 49.7092 2.3002 312° West 444 511 30,500  Level FlightAware UK
03:35PM 49.7325 2.2602 312° West 442 509 30,500  Level FlightAware UK
03:36PM 49.7561 2.2196 312° West 442 509 30,500  Level FlightAware UK
03:36PM 49.7796 2.1788 312° West 446 513 30,500  Level FlightAware UK
03:36PM 49.8035 2.1385 313° West 446 513 30,500  Level FlightAware UK
03:37PM 49.8331 2.1052 324° Northwest 442 509 30,500  Level FlightAware UK
03:37PM 49.8611 2.0694 320° Northwest 444 511 30,500  Level FlightAware UK
03:37PM 49.8894 2.0344 321° Northwest 442 509 30,500  Level FlightAware UK
03:38PM 49.9181 1.9991 322° Northwest 440 506 30,500  Level FlightAware UK
03:38PM 49.9456 1.9629 320° Northwest 444 511 30,500  Level FlightAware UK
03:38PM 49.9733 1.9276 321° Northwest 444 511 30,500 -360 Level FlightAware UK
03:38PM 49.9991 1.8892 316° Northwest 444 511 30,300 -900 Descending FlightAware UK
03:39PM 50.0329 1.8376 316° Northwest 442 509 29,900 -1,020 Descending FlightAware UK
03:39PM 50.0584 1.7987 316° Northwest 446 513 29,600 -1,020 Descending FlightAware UK
03:39PM 50.0841 1.7595 316° Northwest 442 509 29,300 -840 Descending FlightAware UK
03:40PM 50.1093 1.7217 316° Northwest 444 511 29,100 -840 Descending FlightAware UK
03:40PM 50.1350 1.6835 316° Northwest 446 513 28,800 -1,020 Descending FlightAware UK
03:40PM 50.1606 1.6452 316° Northwest 446 513 28,500 -1,500 Descending FlightAware UK
03:41PM 50.1864 1.6071 317° Northwest 444 511 27,900 -2,040 Descending FlightAware UK
03:41PM 50.2122 1.5689 317° Northwest 444 511 27,300 -2,160 Descending FlightAware UK
03:41PM 50.2456 1.5171 315° West 438 504 26,400 -2,340 Descending FlightAware UK
03:42PM 50.2685 1.4791 313° West 432 497 25,700 -2,340 Descending FlightAware UK
03:42PM 50.2917 1.4403 313° West 426 490 25,000 -2,340 Descending FlightAware UK
03:42PM 50.3213 1.3897 313° West 420 483 24,100 -2,340 Descending FlightAware UK
03:43PM 50.3438 1.3516 313° West 416 479 23,400 -2,220 Descending FlightAware UK
03:43PM 50.3658 1.3142 313° West 412 474 22,800 -2,220 Descending FlightAware UK
03:43PM 50.3877 1.2778 313° West 406 467 22,100 -2,160 Descending FlightAware UK
03:44PM 50.4167 1.2289 313° West 402 463 21,300 -2,160 Descending FlightAware UK
03:44PM 50.4377 1.1927 312° West 398 458 20,600 -2,160 Descending FlightAware UK
03:44PM 50.4715 1.1314 311° West 392 451 19,600 -2,040 Descending FlightAware UK
03:45PM 50.4916 1.0943 311° West 392 451 19,000 -2,220 Descending FlightAware UK
03:45PM 50.5118 1.0575 311° West 386 444 18,300 -2,160 Descending FlightAware UK
03:45PM 50.5382 1.0095 311° West 382 440 17,500 -2,040 Descending FlightAware UK
03:46PM 50.5581 0.9737 311° West 376 433 16,900 -2,040 Descending FlightAware UK
03:46PM 50.5841 0.9274 312° West 374 430 16,100 -2,160 Descending FlightAware UK
03:46PM 50.6035 0.8915 310° West 370 426 15,400 -2,040 Descending FlightAware UK
03:47PM 50.6223 0.8574 311° West 366 421 14,900 -1,860 Descending FlightAware UK
03:47PM 50.6413 0.8230 311° West 362 417 14,300 -2,040 Descending FlightAware UK
03:47PM 50.6595 0.7900 311° West 360 414 13,700 -1,740 Descending FlightAware UK
03:48PM 50.6775 0.7570 311° West 358 412 13,300 -1,140 Descending FlightAware UK
03:48PM 50.7139 0.6903 311° West 356 410 12,700 -1,140 Descending FlightAware UK
03:49PM 50.7323 0.6565 311° West 352 405 12,300 -1,680 Descending FlightAware UK
03:49PM 50.7503 0.6235 311° West 348 400 11,700 -2,460 Descending FlightAware UK
03:49PM 50.7804 0.5685 311° West 350 403 10,400 -2,280 Descending FlightAware UK
03:50PM 50.8044 0.5244 311° West 346 398 9,700 -1,860 Descending FlightAware UK
03:50PM 50.8214 0.4930 311° West 338 389 9,100 -1,980 Descending FlightAware UK
03:50PM 50.8438 0.4513 310° West 330 380 8,300 -2,040 Descending FlightAware UK
03:51PM 50.8602 0.4211 311° West 324 373 7,700 -1,920 Descending FlightAware UK
03:51PM 50.8819 0.3992 328° Northwest 320 368 7,200 -1,980 Descending FlightAware UK
03:51PM 50.9116 0.3716 330° Northwest 316 364 6,300 -2,400 Descending FlightAware UK
03:52PM 50.9485 0.3381 330° Northwest 310 357 5,000 -2,220 Descending FlightAware UK
03:52PM 50.9703 0.3183 330° Northwest 300 345 4,600 -600 Descending FlightAware UK
03:53PM 51.0113 0.2836 332° Northwest 272 313 4,500 -540 Descending FlightAware UK
03:53PM 51.0376 0.2616 332° Northwest 268 308 4,100 -1,200 Descending FlightAware UK
03:54PM 51.1166 0.1960 332° Northwest 250 288 2,600 -1,140 Descending FlightAware UK
03:55PM 51.1346 0.1815 333° Northwest 242 278 2,400 -540 Descending FlightAware UK
03:55PM 51.1643 0.1589 334° Northwest 224 258 2,200 -360 Descending FlightAware UK
03:56PM 51.1860 0.1203 312° West 192 221 2,000 -420 Descending FlightAware UK
03:56PM 51.1853 0.0951 268° West 190 219 1,800 -480 Descending FlightAware UK
03:57PM 51.1835 0.0643 265° West 184 212 1,600 -240 Descending FlightAware UK
03:57PM 51.1805 0.0411 258° West 182 209 1,600 -360 Level FlightAware UK
03:58PM 51.1764 0.0133 257° West 172 198 1,300 -780 Descending FlightAware UK
03:58PM 51.1717 -0.0184 257° West 170 196 800 -780 Descending FlightAware UK
03:59PM 51.1672 -0.0511 258° West 162 186 400 -720 Descending FlightAware UK
04:03PM 51.1481 -0.1903 258° West  Level Estimated